createdAt,value
2023-06-22T00:00:45.831Z,12.00
2023-06-22T00:03:14.394Z,12.47
2023-06-22T00:05:42.936Z,13.03
2023-06-22T00:08:11.342Z,14.70
2023-06-22T00:10:39.704Z,11.43
2023-06-22T00:13:08.753Z,13.27
2023-06-22T00:15:40.781Z,13.20
2023-06-22T00:18:09.561Z,10.50
2023-06-22T00:20:38.834Z,19.07
2023-06-22T00:23:09.699Z,13.37
2023-06-22T00:25:38.216Z,12.90
2023-06-22T00:28:07.040Z,12.27
2023-06-22T00:30:35.834Z,12.13
2023-06-22T00:33:08.827Z,12.80
2023-06-22T00:35:37.287Z,10.47
2023-06-22T00:38:06.337Z,12.90
2023-06-22T00:40:35.748Z,11.60
2023-06-22T00:43:04.160Z,13.63
2023-06-22T00:45:32.449Z,14.33
2023-06-22T00:48:02.326Z,16.50
2023-06-22T00:50:35.377Z,14.20
2023-06-22T00:53:09.664Z,12.73
2023-06-22T00:55:39.941Z,13.60
2023-06-22T00:58:11.939Z,12.60
2023-06-22T01:00:41.381Z,11.77
2023-06-22T01:03:11.451Z,11.27
2023-06-22T01:05:42.258Z,10.60
2023-06-22T01:08:25.320Z,12.10
2023-06-22T01:11:00.203Z,12.10
2023-06-22T01:13:33.231Z,15.83
2023-06-22T01:16:05.383Z,11.47
2023-06-22T01:18:37.617Z,12.97
2023-06-22T01:21:10.243Z,12.50
2023-06-22T01:23:52.699Z,17.30
2023-06-22T01:26:28.968Z,15.13
2023-06-22T01:29:01.193Z,10.60
2023-06-22T01:31:31.617Z,12.70
2023-06-22T01:34:02.842Z,18.87
2023-06-22T01:36:32.633Z,12.23
2023-06-22T01:39:02.072Z,15.40
2023-06-22T01:41:32.058Z,13.23
2023-06-22T01:44:02.514Z,14.80
2023-06-22T01:46:31.283Z,13.57
2023-06-22T01:49:00.149Z,14.97
2023-06-22T01:51:28.431Z,16.00
2023-06-22T01:53:56.719Z,12.97
2023-06-22T01:56:25.138Z,12.23
2023-06-22T01:58:59.535Z,12.70
2023-06-22T02:01:37.978Z,14.73
2023-06-22T02:04:12.729Z,17.40
2023-06-22T02:06:44.505Z,12.80
2023-06-22T02:09:16.619Z,12.77
2023-06-22T02:11:48.590Z,13.80
2023-06-22T02:14:19.860Z,15.17
2023-06-22T02:16:49.812Z,13.33
2023-06-22T02:19:19.653Z,13.93
2023-06-22T02:21:48.031Z,13.97
2023-06-22T02:24:16.303Z,13.30
2023-06-22T02:26:46.660Z,13.67
2023-06-22T02:29:15.090Z,19.60
2023-06-22T02:31:43.405Z,23.40
2023-06-22T02:34:19.257Z,16.07
2023-06-22T02:36:51.843Z,14.03
2023-06-22T02:39:23.121Z,13.40
2023-06-22T02:41:51.521Z,13.17
2023-06-22T02:44:20.075Z,15.13
2023-06-22T02:46:49.132Z,13.93
2023-06-22T02:49:18.832Z,12.10
2023-06-22T02:51:49.137Z,19.23
2023-06-22T02:54:17.415Z,12.37
2023-06-22T02:56:46.038Z,14.43
2023-06-22T02:59:14.443Z,15.83
2023-06-22T03:01:42.683Z,15.73
2023-06-22T03:04:11.926Z,13.13
2023-06-22T03:06:42.041Z,14.17
2023-06-22T03:09:10.343Z,14.77
2023-06-22T03:11:38.618Z,21.63
2023-06-22T03:14:06.880Z,13.03
2023-06-22T03:16:35.369Z,13.00
2023-06-22T03:19:03.640Z,16.83
2023-06-22T03:21:33.193Z,14.77
2023-06-22T03:24:02.820Z,15.40
2023-06-22T03:26:31.203Z,14.57
2023-06-22T03:28:59.655Z,15.00
2023-06-22T03:31:28.053Z,14.87
2023-06-22T03:33:57.046Z,17.60
2023-06-22T03:36:25.406Z,12.80
2023-06-22T03:38:54.348Z,12.90
2023-06-22T03:41:23.966Z,22.43
2023-06-22T03:43:52.289Z,15.10
2023-06-22T03:46:21.273Z,15.40
2023-06-22T03:48:49.672Z,11.20
2023-06-22T03:51:17.921Z,18.30
2023-06-22T03:53:46.136Z,17.20
2023-06-22T03:56:14.648Z,12.37
2023-06-22T03:58:45.304Z,11.37
2023-06-22T04:01:13.628Z,28.03
2023-06-22T04:03:43.317Z,36.30
2023-06-22T04:06:11.697Z,39.93
2023-06-22T04:08:39.912Z,20.83
2023-06-22T04:11:08.115Z,18.37
2023-06-22T04:13:36.377Z,15.80
2023-06-22T04:16:06.417Z,17.90
2023-06-22T04:18:34.697Z,22.27
2023-06-22T04:21:03.640Z,18.30
2023-06-22T04:23:31.853Z,20.70
2023-06-22T04:26:02.241Z,14.93
2023-06-22T04:28:30.485Z,15.80
2023-06-22T04:30:59.620Z,22.77
2023-06-22T04:33:30.461Z,28.30
2023-06-22T04:35:59.250Z,14.70
2023-06-22T04:38:27.571Z,16.30
2023-06-22T04:40:56.128Z,19.27
2023-06-22T04:43:24.432Z,18.13
2023-06-22T04:45:53.847Z,14.63
2023-06-22T04:48:22.141Z,18.43
2023-06-22T04:50:51.918Z,13.60
2023-06-22T04:53:20.177Z,16.90
2023-06-22T04:55:50.358Z,16.70
2023-06-22T04:58:21.035Z,16.73
2023-06-22T05:00:52.967Z,16.87
2023-06-22T05:03:21.376Z,16.53
2023-06-22T05:05:51.201Z,16.30
2023-06-22T05:08:19.731Z,20.50
2023-06-22T05:10:59.793Z,17.00
2023-06-22T05:13:33.086Z,18.10
2023-06-22T05:16:04.166Z,17.67
2023-06-22T05:18:33.200Z,12.93
2023-06-22T05:21:03.105Z,14.97
2023-06-22T05:23:31.356Z,16.90
2023-06-22T05:25:59.771Z,13.50
2023-06-22T05:28:28.083Z,13.57
2023-06-22T05:30:56.543Z,14.63
2023-06-22T05:33:24.810Z,9.77
2023-06-22T05:35:53.105Z,13.17
2023-06-22T05:38:22.743Z,10.67
2023-06-22T05:40:51.005Z,10.47
2023-06-22T05:43:19.218Z,12.57
2023-06-22T05:45:47.469Z,10.30
2023-06-22T05:48:15.876Z,10.50
2023-06-22T05:50:44.972Z,10.50
2023-06-22T05:53:16.288Z,10.70
2023-06-22T05:55:46.010Z,9.03
2023-06-22T05:58:14.518Z,9.93
2023-06-22T06:00:44.220Z,9.20
2023-06-22T06:03:15.554Z,8.80
2023-06-22T06:05:44.198Z,10.37
2023-06-22T06:08:13.315Z,12.90
2023-06-22T06:10:41.853Z,10.43
2023-06-22T06:13:11.482Z,10.50
2023-06-22T06:15:41.118Z,8.60
2023-06-22T06:18:09.368Z,11.07
2023-06-22T06:20:37.868Z,11.67
2023-06-22T06:23:06.118Z,11.13
2023-06-22T06:25:34.367Z,8.50
2023-06-22T06:28:02.582Z,8.73
2023-06-22T06:30:32.607Z,10.33
2023-06-22T06:33:02.301Z,9.97
2023-06-22T06:35:30.763Z,10.47
2023-06-22T06:37:59.178Z,9.90
2023-06-22T06:40:27.514Z,12.83
2023-06-22T06:42:55.865Z,11.23
2023-06-22T06:45:25.475Z,10.87
2023-06-22T06:47:55.290Z,10.43
2023-06-22T06:50:24.064Z,10.03
2023-06-22T06:52:52.524Z,12.00
2023-06-22T06:55:21.545Z,10.97
2023-06-22T06:57:50.927Z,9.90
2023-06-22T07:00:20.583Z,14.10
2023-06-22T07:02:50.138Z,14.63
2023-06-22T07:05:19.918Z,14.07
2023-06-22T07:07:48.184Z,12.03
2023-06-22T07:10:17.485Z,13.47
2023-06-22T07:12:45.803Z,10.80
2023-06-22T07:15:14.526Z,9.70
2023-06-22T07:17:45.579Z,11.27
2023-06-22T07:20:17.067Z,11.87
2023-06-22T07:22:47.135Z,8.77
2023-06-22T07:25:16.753Z,12.07
2023-06-22T07:27:49.501Z,12.53
2023-06-22T07:30:17.799Z,9.40
2023-06-22T07:32:46.043Z,13.50
2023-06-22T07:35:14.389Z,11.33
2023-06-22T07:37:42.665Z,14.40
2023-06-22T07:40:13.642Z,10.80
2023-06-22T07:42:41.871Z,10.50
2023-06-22T07:45:10.632Z,10.37
2023-06-22T07:47:39.053Z,11.33
2023-06-22T07:50:11.150Z,11.20
2023-06-22T07:52:39.541Z,11.10
2023-06-22T07:55:08.110Z,11.73
2023-06-22T07:57:37.718Z,11.83
2023-06-22T08:00:13.546Z,8.17
2023-06-22T08:02:42.668Z,9.70
2023-06-22T08:05:20.975Z,8.17
2023-06-22T08:08:00.251Z,8.10
2023-06-22T08:10:28.730Z,8.50
2023-06-22T08:12:58.366Z,8.57
2023-06-22T08:15:29.814Z,9.30
2023-06-22T08:17:59.140Z,7.40
2023-06-22T08:20:27.470Z,9.50
2023-06-22T08:22:56.742Z,8.07
2023-06-22T08:25:25.006Z,9.57
2023-06-22T08:27:53.208Z,8.70
2023-06-22T08:30:22.814Z,9.60
2023-06-22T08:32:51.161Z,9.50
2023-06-22T08:35:19.674Z,9.87
2023-06-22T08:37:53.628Z,16.93
2023-06-22T08:40:23.568Z,10.87
2023-06-22T08:42:51.920Z,14.30
2023-06-22T08:45:20.218Z,11.50
2023-06-22T08:47:49.938Z,10.47
2023-06-22T08:50:18.195Z,9.60
2023-06-22T08:52:46.880Z,11.90
2023-06-22T08:55:16.208Z,10.33
2023-06-22T08:57:45.073Z,10.90
2023-06-22T09:00:30.547Z,8.37
2023-06-22T09:03:00.905Z,8.20
2023-06-22T09:05:29.468Z,8.57
2023-06-22T09:07:59.963Z,10.30
2023-06-22T09:10:28.644Z,9.97
2023-06-22T09:12:57.321Z,9.93
2023-06-22T09:15:25.914Z,12.77
2023-06-22T09:17:55.532Z,10.60
2023-06-22T09:20:25.500Z,8.47
2023-06-22T09:22:53.860Z,10.53
2023-06-22T09:25:22.672Z,7.70
2023-06-22T09:27:50.901Z,9.30
2023-06-22T09:30:19.217Z,7.77
2023-06-22T09:32:47.951Z,6.77
2023-06-22T09:35:16.322Z,7.50
2023-06-22T09:37:46.262Z,8.33
2023-06-22T09:40:18.016Z,8.13
2023-06-22T09:42:46.448Z,7.40
2023-06-22T09:45:14.646Z,10.80
2023-06-22T09:47:43.939Z,9.27
2023-06-22T09:50:12.674Z,10.63
2023-06-22T09:55:13.490Z,8.50
2023-06-22T09:57:41.763Z,8.00
2023-06-22T10:00:12.669Z,9.67
2023-06-22T10:02:41.338Z,8.07
2023-06-22T10:05:10.353Z,10.63
2023-06-22T10:07:41.146Z,9.57
2023-06-22T10:10:10.724Z,8.87
2023-06-22T10:12:44.933Z,9.27
2023-06-22T10:15:13.605Z,9.50
2023-06-22T10:17:42.844Z,12.83
2023-06-22T10:20:13.898Z,10.10
2023-06-22T10:22:43.405Z,11.40
2023-06-22T10:25:12.606Z,7.50
2023-06-22T10:27:42.563Z,7.73
2023-06-22T10:30:13.923Z,10.40
2023-06-22T10:32:43.630Z,10.73
2023-06-22T10:35:14.949Z,10.00
2023-06-22T10:37:44.490Z,8.77
2023-06-22T10:40:14.383Z,11.50
2023-06-22T10:42:44.188Z,9.20
2023-06-22T10:45:12.901Z,8.57
2023-06-22T10:47:43.283Z,15.80
2023-06-22T10:50:12.501Z,8.30
2023-06-22T10:52:40.842Z,7.87
2023-06-22T10:55:09.886Z,9.47
2023-06-22T10:57:40.153Z,10.33
2023-06-22T11:00:12.419Z,8.70
2023-06-22T11:02:40.900Z,8.67
2023-06-22T11:05:12.559Z,8.47
2023-06-22T11:10:12.908Z,7.43
2023-06-22T11:12:44.718Z,8.80
2023-06-22T11:15:14.516Z,11.30
2023-06-22T11:17:42.763Z,8.13
2023-06-22T11:20:12.708Z,10.40
2023-06-22T11:22:44.234Z,8.50
2023-06-22T11:25:13.675Z,7.97
2023-06-22T11:27:42.147Z,7.20
2023-06-22T11:30:11.407Z,8.37
2023-06-22T11:32:41.212Z,13.83
2023-06-22T11:35:12.623Z,10.67
2023-06-22T11:37:41.301Z,10.53
2023-06-22T11:40:11.273Z,13.63
2023-06-22T11:42:39.538Z,8.60
2023-06-22T11:45:09.007Z,8.23
2023-06-22T11:47:37.405Z,8.10
2023-06-22T11:50:08.704Z,13.37
2023-06-22T11:52:38.118Z,8.20
2023-06-22T11:55:07.689Z,7.90
2023-06-22T11:57:37.121Z,8.77
2023-06-22T12:00:15.136Z,8.33
2023-06-22T12:02:43.438Z,9.67
2023-06-22T12:05:13.529Z,8.77
2023-06-22T12:07:41.995Z,9.50
2023-06-22T12:10:11.046Z,7.10
2023-06-22T12:12:39.291Z,11.50
2023-06-22T12:15:08.571Z,8.23
2023-06-22T12:17:36.836Z,14.23
2023-06-22T12:20:07.063Z,7.07
2023-06-22T12:22:39.846Z,7.43
2023-06-22T12:25:09.337Z,6.70
2023-06-22T12:27:37.630Z,6.87
2023-06-22T12:30:06.854Z,7.03
2023-06-22T12:32:35.169Z,7.33
2023-06-22T12:35:03.466Z,10.33
2023-06-22T12:37:32.826Z,7.13
2023-06-22T12:40:02.442Z,7.07
2023-06-22T12:42:31.525Z,6.83
2023-06-22T12:44:59.876Z,11.73
2023-06-22T12:47:30.831Z,7.00
2023-06-22T12:49:59.303Z,6.03
2023-06-22T12:52:27.819Z,7.33
2023-06-22T12:54:58.980Z,9.50
2023-06-22T12:57:28.674Z,7.63
2023-06-22T12:59:56.934Z,7.97
2023-06-22T13:02:25.245Z,7.40
2023-06-22T13:04:53.798Z,8.40
2023-06-22T13:07:23.841Z,9.40
2023-06-22T13:09:53.855Z,7.33
2023-06-22T13:12:23.067Z,6.97
2023-06-22T13:14:52.766Z,9.70
2023-06-22T13:17:21.059Z,7.83
2023-06-22T13:19:49.536Z,8.53
2023-06-22T13:22:32.148Z,7.13
2023-06-22T13:25:02.200Z,7.93
2023-06-22T13:27:30.400Z,8.27
2023-06-22T13:30:00.149Z,9.53
2023-06-22T13:32:28.455Z,16.50
2023-06-22T13:34:56.841Z,13.67
2023-06-22T13:37:25.183Z,9.20
2023-06-22T13:39:53.759Z,9.87
2023-06-22T13:42:22.013Z,10.33
2023-06-22T13:44:50.309Z,13.17
2023-06-22T13:47:19.983Z,10.10
2023-06-22T13:49:48.273Z,9.00
2023-06-22T13:52:16.639Z,9.93
2023-06-22T13:54:47.673Z,36.20
2023-06-22T13:57:15.975Z,9.50
2023-06-22T13:59:44.534Z,12.97
2023-06-22T14:02:12.901Z,15.50
2023-06-22T14:04:42.621Z,9.77
2023-06-22T14:07:10.956Z,9.73
2023-06-22T14:09:39.329Z,9.80
2023-06-22T14:12:08.524Z,9.80
2023-06-22T14:14:36.984Z,15.03
2023-06-22T14:17:06.298Z,11.73
2023-06-22T14:19:34.536Z,9.10
2023-06-22T14:22:06.837Z,21.83
2023-06-22T14:24:35.207Z,10.63
2023-06-22T14:27:04.429Z,11.83
2023-06-22T14:29:32.708Z,9.30
2023-06-22T14:32:01.894Z,10.83
2023-06-22T14:34:30.199Z,9.47
2023-06-22T14:37:01.086Z,16.37
2023-06-22T14:39:30.788Z,11.50
2023-06-22T14:41:58.989Z,10.10
2023-06-22T14:44:27.240Z,9.70
2023-06-22T14:46:55.494Z,9.70
2023-06-22T14:49:23.769Z,11.60
2023-06-22T14:51:52.427Z,9.60
2023-06-22T14:54:21.768Z,9.33
2023-06-22T14:56:52.669Z,9.87
2023-06-22T14:59:27.013Z,9.47
2023-06-22T15:01:55.324Z,9.93
2023-06-22T15:04:24.573Z,9.87
2023-06-22T15:06:52.964Z,9.90
2023-06-22T15:09:21.189Z,9.47
2023-06-22T15:11:49.434Z,11.80
2023-06-22T15:14:19.200Z,11.80
2023-06-22T15:16:50.065Z,10.13
2023-06-22T15:19:18.407Z,9.67
2023-06-22T15:21:46.740Z,15.73
2023-06-22T15:24:14.961Z,10.20
2023-06-22T15:26:43.354Z,15.20
2023-06-22T15:29:11.623Z,11.20
2023-06-22T15:31:41.270Z,9.40
2023-06-22T15:34:09.526Z,11.20
2023-06-22T15:36:43.180Z,9.53
2023-06-22T15:39:11.420Z,10.27
2023-06-22T15:41:42.644Z,9.20
2023-06-22T15:44:10.858Z,9.93
2023-06-22T15:46:43.181Z,11.83
2023-06-22T15:49:11.411Z,13.57
2023-06-22T15:51:39.644Z,15.50
2023-06-22T15:54:07.875Z,10.57
2023-06-22T15:56:36.308Z,11.93
2023-06-22T15:59:04.545Z,10.80
2023-06-22T16:01:32.924Z,12.83
2023-06-22T16:04:03.935Z,16.73
2023-06-22T16:06:32.212Z,13.33
2023-06-22T16:09:00.459Z,12.13
2023-06-22T16:11:28.662Z,10.83
2023-06-22T16:13:56.930Z,13.13
2023-06-22T16:16:25.280Z,9.90
2023-06-22T16:18:53.508Z,11.70
2023-06-22T16:21:23.167Z,11.13
2023-06-22T16:23:51.377Z,11.03
2023-06-22T16:26:19.677Z,11.57
2023-06-22T16:28:47.900Z,13.43
2023-06-22T16:31:16.686Z,12.27
2023-06-22T16:33:48.849Z,16.70
2023-06-22T16:36:17.304Z,11.60
2023-06-22T16:38:46.904Z,14.00
2023-06-22T16:41:16.093Z,11.37
2023-06-22T16:43:44.366Z,14.10
2023-06-22T16:46:12.668Z,12.63
2023-06-22T16:48:41.008Z,11.07
2023-06-22T16:51:09.422Z,17.87
2023-06-22T16:53:37.810Z,13.93
2023-06-22T16:56:07.773Z,13.50
2023-06-22T16:58:37.684Z,13.87
2023-06-22T17:01:09.835Z,16.43
2023-06-22T17:03:45.267Z,16.03
2023-06-22T17:06:16.705Z,14.70
2023-06-22T17:08:47.248Z,13.17
2023-06-22T17:11:17.482Z,16.23
2023-06-22T17:13:53.641Z,14.57
2023-06-22T17:16:22.389Z,16.77
2023-06-22T17:18:52.939Z,19.90
2023-06-22T17:21:24.498Z,13.70
2023-06-22T17:23:53.091Z,16.80
2023-06-22T17:26:24.024Z,16.47
2023-06-22T17:28:55.916Z,17.73
2023-06-22T17:31:27.649Z,14.13
2023-06-22T17:33:56.714Z,14.30
2023-06-22T17:36:24.932Z,14.80
2023-06-22T17:38:53.139Z,12.97
2023-06-22T17:41:34.806Z,16.67
2023-06-22T17:44:06.428Z,11.93
2023-06-22T17:46:36.767Z,13.50
2023-06-22T17:49:09.608Z,14.47
2023-06-22T17:51:38.433Z,14.13
2023-06-22T17:54:06.709Z,16.60
2023-06-22T17:56:36.383Z,18.20
2023-06-22T17:59:04.851Z,14.80
2023-06-22T18:01:36.273Z,17.67
2023-06-22T18:04:11.334Z,16.83
2023-06-22T18:06:43.881Z,19.50
2023-06-22T18:09:23.451Z,17.40
2023-06-22T18:11:53.751Z,15.90
2023-06-22T18:14:25.838Z,15.17
2023-06-22T18:16:54.960Z,21.30
2023-06-22T18:19:23.647Z,16.80
2023-06-22T18:21:52.057Z,20.07
2023-06-22T18:24:21.390Z,17.00
2023-06-22T18:26:51.128Z,14.00
2023-06-22T18:29:22.034Z,17.33
2023-06-22T18:31:50.378Z,17.90
2023-06-22T18:34:18.996Z,12.63
2023-06-22T18:36:54.368Z,16.70
2023-06-22T18:39:24.416Z,23.77
2023-06-22T18:41:55.599Z,19.20
2023-06-22T18:44:28.642Z,16.30
2023-06-22T18:47:00.305Z,17.07
2023-06-22T18:49:33.462Z,17.20
2023-06-22T18:52:09.779Z,14.40
2023-06-22T18:54:40.586Z,12.80
2023-06-22T18:57:18.674Z,19.53
2023-06-22T18:59:53.051Z,13.73
2023-06-22T19:02:48.225Z,22.43
2023-06-22T19:05:21.321Z,16.17
2023-06-22T19:08:00.338Z,22.53
2023-06-22T19:10:33.397Z,18.40
2023-06-22T19:13:20.789Z,15.73
2023-06-22T19:15:53.906Z,15.23
2023-06-22T19:18:23.730Z,17.90
2023-06-22T19:20:54.936Z,14.60
2023-06-22T19:23:30.410Z,14.20
2023-06-22T19:26:01.080Z,19.07
2023-06-22T19:28:30.573Z,19.30
2023-06-22T19:31:02.295Z,15.90
2023-06-22T19:33:31.429Z,14.13
2023-06-22T19:36:04.154Z,17.67
2023-06-22T19:38:34.096Z,18.47
2023-06-22T19:41:03.015Z,15.97
2023-06-22T19:43:31.728Z,14.37
2023-06-22T19:46:02.249Z,15.83
2023-06-22T19:48:34.217Z,17.00
2023-06-22T19:51:05.968Z,15.10
2023-06-22T19:53:44.654Z,16.37
2023-06-22T19:56:15.621Z,15.10
2023-06-22T19:58:43.856Z,20.90
2023-06-22T20:01:16.117Z,16.57
2023-06-22T20:03:50.131Z,15.00
2023-06-22T20:06:22.046Z,16.60
2023-06-22T20:08:59.247Z,21.13
2023-06-22T20:11:30.696Z,17.30
2023-06-22T20:14:00.709Z,14.57
2023-06-22T20:16:32.074Z,13.70
2023-06-22T20:19:08.349Z,14.40
2023-06-22T20:21:39.670Z,14.40
2023-06-22T20:24:08.653Z,15.13
2023-06-22T20:26:41.816Z,15.20
2023-06-22T20:29:26.277Z,13.50
2023-06-22T20:32:09.970Z,15.83
2023-06-22T20:34:39.609Z,13.57
2023-06-22T20:37:12.020Z,12.43
2023-06-22T20:39:41.084Z,15.20
2023-06-22T20:42:09.851Z,14.13
2023-06-22T20:44:38.173Z,13.30
2023-06-22T20:47:11.222Z,19.53
2023-06-22T20:49:42.368Z,22.30
2023-06-22T20:52:11.101Z,21.63
2023-06-22T20:54:39.321Z,14.07
2023-06-22T20:57:10.664Z,19.03
2023-06-22T20:59:38.892Z,16.23
2023-06-22T21:02:08.837Z,20.73
2023-06-22T21:04:38.211Z,14.20
2023-06-22T21:07:07.177Z,14.93
2023-06-22T21:09:49.975Z,16.60
2023-06-22T21:12:19.618Z,13.10
2023-06-22T21:14:51.179Z,19.40
2023-06-22T21:17:21.106Z,19.53
2023-06-22T21:19:49.483Z,19.67
2023-06-22T21:22:17.836Z,16.53
2023-06-22T21:24:46.869Z,14.00
2023-06-22T21:27:15.280Z,16.77
2023-06-22T21:29:43.544Z,24.60
2023-06-22T21:32:11.853Z,16.43
2023-06-22T21:34:41.464Z,14.60
2023-06-22T21:37:09.661Z,15.10
2023-06-22T21:39:38.018Z,14.80
2023-06-22T21:42:06.793Z,13.13
2023-06-22T21:44:35.038Z,20.27
2023-06-22T21:47:03.287Z,14.23
2023-06-22T21:49:31.665Z,20.23
2023-06-22T21:52:02.280Z,14.43
2023-06-22T21:54:30.535Z,17.87
2023-06-22T21:56:58.897Z,14.67
2023-06-22T21:59:27.565Z,14.70
2023-06-22T22:01:56.607Z,18.73
2023-06-22T22:04:24.874Z,17.63
2023-06-22T22:06:53.191Z,16.37
2023-06-22T22:09:23.596Z,19.20
2023-06-22T22:11:52.001Z,15.73
2023-06-22T22:14:20.313Z,14.43
2023-06-22T22:16:48.666Z,15.53
2023-06-22T22:19:16.966Z,16.90
2023-06-22T22:21:45.176Z,16.33
2023-06-22T22:24:13.423Z,14.57
2023-06-22T22:26:43.070Z,18.63
2023-06-22T22:29:11.429Z,18.57
2023-06-22T22:31:39.877Z,18.90
2023-06-22T22:34:10.275Z,18.60
2023-06-22T22:36:40.100Z,23.10
2023-06-22T22:39:10.315Z,14.73
2023-06-22T22:41:38.742Z,14.97
2023-06-22T22:44:08.380Z,16.77
2023-06-22T22:46:36.777Z,18.70
2023-06-22T22:49:05.794Z,21.10
2023-06-22T22:51:34.092Z,22.00
2023-06-22T22:54:02.345Z,19.77
2023-06-22T22:56:30.684Z,20.50
2023-06-22T22:58:58.914Z,22.23
2023-06-22T23:01:28.658Z,19.50
2023-06-22T23:03:57.676Z,19.17
2023-06-22T23:06:26.127Z,20.00
2023-06-22T23:08:58.685Z,23.60
2023-06-22T23:11:27.202Z,20.27
2023-06-22T23:13:58.121Z,20.23
2023-06-22T23:16:29.753Z,20.03
2023-06-22T23:18:58.003Z,23.83
2023-06-22T23:21:30.204Z,20.80
2023-06-22T23:23:58.497Z,23.80
2023-06-22T23:26:29.557Z,24.83
2023-06-22T23:28:57.911Z,24.87
2023-06-22T23:31:26.226Z,21.07
2023-06-22T23:33:56.008Z,21.30
2023-06-22T23:36:26.463Z,31.57
2023-06-22T23:38:55.458Z,24.90
2023-06-22T23:41:26.523Z,26.17
2023-06-22T23:43:55.352Z,26.77
2023-06-22T23:46:23.735Z,26.80
2023-06-22T23:48:52.477Z,23.93
2023-06-22T23:51:22.151Z,22.87
